createdAt,value
2018-03-24T00:01:34.758Z,19.90
2018-03-24T00:04:37.944Z,20.00
2018-03-24T00:07:41.110Z,20.00
2018-03-24T00:10:45.022Z,20.10
2018-03-24T00:13:48.199Z,20.10
2018-03-24T00:16:51.370Z,20.10
2018-03-24T00:19:54.670Z,20.10
2018-03-24T00:22:58.632Z,20.10
2018-03-24T00:26:01.789Z,20.00
2018-03-24T00:29:04.961Z,20.00
2018-03-24T00:32:08.101Z,20.00
2018-03-24T00:35:11.324Z,19.90
2018-03-24T00:38:15.245Z,19.80
2018-03-24T00:41:18.425Z,19.80
2018-03-24T00:44:21.621Z,19.80
2018-03-24T00:47:25.226Z,19.80
2018-03-24T00:50:28.411Z,19.70
2018-03-24T00:53:32.324Z,19.70
2018-03-24T00:56:35.505Z,19.70
2018-03-24T00:59:38.681Z,19.70
2018-03-24T01:02:41.828Z,19.70
2018-03-24T01:05:44.996Z,19.60
2018-03-24T01:08:48.145Z,19.60
2018-03-24T01:11:51.423Z,19.60
2018-03-24T01:14:54.595Z,19.70
2018-03-24T01:17:58.506Z,19.80
2018-03-24T01:21:01.685Z,19.90
2018-03-24T01:24:04.829Z,19.90
2018-03-24T01:27:07.999Z,20.00
2018-03-24T01:30:11.188Z,20.00
2018-03-24T01:33:14.336Z,20.10
2018-03-24T01:36:17.515Z,20.10
2018-03-24T01:39:20.671Z,20.20
2018-03-24T01:42:24.117Z,20.10
2018-03-24T01:45:27.297Z,20.10
2018-03-24T01:48:30.454Z,20.10
2018-03-24T01:51:33.641Z,20.00
2018-03-24T01:54:36.794Z,20.00
2018-03-24T01:57:39.979Z,19.90
2018-03-24T02:00:43.130Z,19.90
2018-03-24T02:03:46.306Z,19.90
2018-03-24T02:06:49.489Z,19.80
2018-03-24T02:09:52.651Z,19.80
2018-03-24T02:12:55.835Z,19.70
2018-03-24T02:15:58.993Z,19.70
2018-03-24T02:19:02.930Z,19.70
2018-03-24T02:22:06.871Z,19.70
2018-03-24T02:25:10.398Z,19.70
2018-03-24T02:28:13.586Z,19.70
2018-03-24T02:31:17.533Z,19.80
2018-03-24T02:34:20.724Z,19.80
2018-03-24T02:37:24.676Z,19.90
2018-03-24T02:40:27.886Z,19.90
2018-03-24T02:43:31.039Z,20.00
2018-03-24T02:46:34.202Z,20.10
2018-03-24T02:49:37.371Z,20.00
2018-03-24T02:52:40.545Z,20.00
2018-03-24T02:55:43.685Z,20.00
2018-03-24T02:58:46.884Z,20.00
2018-03-24T03:01:50.036Z,20.00
2018-03-24T03:04:53.223Z,20.00
2018-03-24T03:07:57.205Z,19.90
2018-03-24T03:11:00.353Z,19.90
2018-03-24T03:14:03.533Z,19.80
2018-03-24T03:17:06.688Z,19.80
2018-03-24T03:20:10.643Z,19.70
2018-03-24T03:23:13.827Z,19.70
2018-03-24T03:26:16.991Z,19.70
2018-03-24T03:29:20.182Z,19.70
2018-03-24T03:32:24.771Z,19.70
2018-03-24T03:35:28.734Z,19.70
2018-03-24T03:38:31.930Z,19.60
2018-03-24T03:41:35.094Z,19.60
2018-03-24T03:44:38.278Z,19.70
2018-03-24T03:47:41.427Z,19.70
2018-03-24T03:50:45.366Z,19.90
2018-03-24T03:53:49.307Z,20.00
2018-03-24T03:56:52.462Z,20.00
2018-03-24T03:59:55.657Z,20.10
2018-03-24T04:02:58.804Z,20.20
2018-03-24T04:06:01.977Z,20.20
2018-03-24T04:09:05.178Z,20.20
2018-03-24T04:12:08.322Z,20.20
2018-03-24T04:15:11.497Z,20.20
2018-03-24T04:18:14.778Z,20.10
2018-03-24T04:21:18.714Z,20.10
2018-03-24T04:24:21.914Z,20.00
2018-03-24T04:27:25.849Z,20.00
2018-03-24T04:30:29.795Z,19.90
2018-03-24T04:33:32.936Z,19.90
2018-03-24T04:36:36.112Z,19.80
2018-03-24T04:39:39.290Z,19.80
2018-03-24T04:42:43.220Z,19.70
2018-03-24T04:45:47.147Z,19.70
2018-03-24T04:48:51.080Z,19.70
2018-03-24T04:51:55.067Z,19.70
2018-03-24T04:54:58.262Z,19.70
2018-03-24T04:58:01.408Z,19.70
2018-03-24T05:01:04.590Z,19.70
2018-03-24T05:04:07.742Z,19.70
2018-03-24T05:07:11.675Z,19.80
2018-03-24T05:10:15.581Z,19.90
2018-03-24T05:13:18.746Z,19.90
2018-03-24T05:16:21.926Z,20.00
2018-03-24T05:19:25.074Z,20.00
2018-03-24T05:22:28.348Z,20.10
2018-03-24T05:25:31.487Z,20.10
2018-03-24T05:28:34.649Z,20.20
2018-03-24T05:31:38.579Z,20.20
2018-03-24T05:34:42.477Z,20.20
2018-03-24T05:37:45.654Z,20.10
2018-03-24T05:40:48.808Z,20.10
2018-03-24T05:43:52.749Z,20.00
2018-03-24T05:46:56.692Z,20.00
2018-03-24T05:49:59.902Z,20.00
2018-03-24T05:53:03.080Z,19.90
2018-03-24T05:56:06.268Z,19.90
2018-03-24T05:59:09.449Z,19.80
2018-03-24T06:02:12.623Z,19.80
2018-03-24T06:05:15.769Z,19.70
2018-03-24T06:08:18.947Z,19.70
2018-03-24T06:11:22.865Z,19.70
2018-03-24T06:14:26.809Z,19.70
2018-03-24T06:17:29.985Z,19.70
2018-03-24T06:20:33.128Z,19.70
2018-03-24T06:23:36.308Z,19.70
2018-03-24T06:26:39.461Z,19.70
2018-03-24T06:29:42.640Z,19.70
2018-03-24T06:32:46.583Z,19.80
2018-03-24T06:39:19.242Z,20.00
2018-03-24T06:42:22.394Z,20.00
2018-03-24T06:45:25.566Z,20.10
2018-03-24T06:48:28.750Z,20.10
2018-03-24T06:51:31.904Z,20.20
2018-03-24T06:54:35.108Z,20.20
2018-03-24T06:57:38.266Z,20.10
2018-03-24T07:00:41.476Z,20.10
2018-03-24T07:03:44.660Z,20.00
2018-03-24T07:06:48.576Z,20.00
2018-03-24T07:09:51.749Z,20.00
2018-03-24T07:12:54.909Z,20.00
2018-03-24T07:15:58.839Z,19.80
2018-03-24T07:19:02.777Z,19.90
2018-03-24T07:22:05.952Z,19.80
2018-03-24T07:25:09.171Z,19.80
2018-03-24T07:28:12.327Z,19.80
2018-03-24T07:31:15.505Z,19.80
2018-03-24T07:34:19.442Z,19.80
2018-03-24T07:37:23.353Z,19.70
2018-03-24T07:40:27.295Z,19.60
2018-03-24T07:43:30.485Z,19.50
2018-03-24T07:46:34.408Z,19.30
2018-03-24T07:49:38.377Z,19.30
2018-03-24T07:52:41.526Z,19.30
2018-03-24T07:55:44.718Z,19.30
2018-03-24T07:58:47.860Z,19.30
2018-03-24T08:01:51.038Z,19.30
2018-03-24T08:04:54.222Z,19.30
2018-03-24T08:07:57.371Z,19.30
2018-03-24T08:11:00.576Z,19.30
2018-03-24T08:14:03.736Z,19.30
2018-03-24T08:17:06.922Z,19.40
2018-03-24T08:20:10.872Z,19.30
2018-03-24T08:23:14.012Z,19.30
2018-03-24T08:26:17.281Z,19.30
2018-03-24T08:29:21.229Z,19.30
2018-03-24T08:32:24.544Z,19.30
2018-03-24T08:35:27.723Z,19.40
2018-03-24T08:38:31.625Z,19.50
2018-03-24T08:41:34.848Z,19.50
2018-03-24T08:44:38.869Z,19.50
2018-03-24T08:47:42.051Z,19.50
2018-03-24T08:50:45.225Z,19.50
2018-03-24T08:53:48.420Z,19.50
2018-03-24T08:56:52.364Z,19.60
2018-03-24T08:59:55.539Z,19.60
2018-03-24T09:02:59.453Z,19.80
2018-03-24T09:06:02.632Z,19.80
2018-03-24T09:09:05.786Z,19.90
2018-03-24T09:12:09.007Z,20.00
2018-03-24T09:15:12.948Z,20.10
2018-03-24T09:18:16.102Z,20.00
2018-03-24T09:21:19.268Z,20.00
2018-03-24T09:24:22.418Z,20.00
2018-03-24T09:27:25.593Z,20.00
2018-03-24T09:30:28.781Z,19.90
2018-03-24T09:33:31.958Z,19.90
2018-03-24T09:36:35.141Z,19.90
2018-03-24T09:39:38.294Z,19.80
2018-03-24T09:42:41.464Z,19.80
2018-03-24T09:45:44.641Z,19.70
2018-03-24T09:48:47.804Z,19.70
2018-03-24T09:51:50.981Z,19.60
2018-03-24T09:54:54.120Z,19.60
2018-03-24T09:57:57.305Z,19.70
2018-03-24T10:01:00.478Z,19.60
2018-03-24T10:04:03.615Z,19.70
2018-03-24T10:07:07.109Z,19.70
2018-03-24T10:10:10.318Z,19.60
2018-03-24T10:13:13.556Z,19.70
2018-03-24T10:16:16.753Z,19.80
2018-03-24T10:19:19.907Z,19.90
2018-03-24T10:22:44.472Z,19.90
2018-03-24T10:25:47.620Z,20.00
2018-03-24T10:28:50.810Z,20.00
2018-03-24T10:31:53.986Z,20.10
2018-03-24T10:35:02.626Z,20.10
2018-03-24T10:38:05.813Z,20.10
2018-03-24T10:41:09.774Z,20.00
2018-03-24T10:44:12.953Z,20.00
2018-03-24T10:47:16.902Z,19.90
2018-03-24T10:50:20.058Z,19.90
2018-03-24T10:53:23.244Z,19.90
2018-03-24T10:56:26.388Z,19.80
2018-03-24T10:59:29.565Z,19.80
2018-03-24T11:02:32.751Z,19.70
2018-03-24T11:05:35.982Z,19.70
2018-03-24T11:08:39.171Z,19.70
2018-03-24T11:11:42.325Z,19.70
2018-03-24T11:14:45.497Z,19.80
2018-03-24T11:17:48.811Z,19.80
2018-03-24T11:20:51.945Z,19.80
2018-03-24T11:23:55.114Z,19.80
2018-03-24T11:26:58.263Z,19.90
2018-03-24T11:30:01.439Z,20.00
2018-03-24T11:33:04.641Z,20.10
2018-03-24T11:36:07.793Z,20.00
2018-03-24T11:39:11.011Z,20.10
2018-03-24T11:42:14.261Z,20.10
2018-03-24T11:45:17.449Z,20.00
2018-03-24T11:48:20.620Z,20.00
2018-03-24T11:51:23.772Z,20.00
2018-03-24T11:54:38.780Z,20.00
2018-03-24T11:57:42.894Z,19.90
2018-03-24T12:00:46.124Z,19.90
2018-03-24T12:03:50.062Z,19.80
2018-03-24T12:06:53.226Z,19.90
2018-03-24T12:09:56.413Z,19.80
2018-03-24T12:12:59.588Z,19.90
2018-03-24T12:16:02.762Z,19.90
2018-03-24T12:19:05.974Z,19.80
2018-03-24T12:22:09.214Z,19.90
2018-03-24T12:25:13.103Z,19.90
2018-03-24T12:28:16.440Z,19.90
2018-03-24T12:31:19.667Z,19.90
2018-03-24T12:34:22.857Z,19.90
2018-03-24T12:37:26.783Z,19.90
2018-03-24T12:40:30.722Z,20.00
2018-03-24T12:43:34.501Z,20.00
2018-03-24T12:46:37.696Z,20.00
2018-03-24T12:49:40.856Z,20.10
2018-03-24T12:52:44.788Z,20.10
2018-03-24T12:55:48.722Z,20.10
2018-03-24T12:58:51.860Z,20.10
2018-03-24T13:01:55.028Z,20.20
2018-03-24T13:04:58.965Z,20.10
2018-03-24T13:08:02.111Z,20.10
2018-03-24T13:11:05.322Z,20.10
2018-03-24T13:14:08.475Z,20.10
2018-03-24T13:17:11.644Z,20.10
2018-03-24T13:20:14.815Z,20.10
2018-03-24T13:23:17.964Z,20.00
2018-03-24T13:26:21.203Z,20.00
2018-03-24T13:29:24.337Z,20.00
2018-03-24T13:32:28.269Z,19.90
2018-03-24T13:35:31.446Z,19.90
2018-03-24T13:38:34.596Z,19.90
2018-03-24T13:41:37.774Z,19.90
2018-03-24T13:44:41.711Z,19.90
2018-03-24T13:47:45.636Z,19.80
2018-03-24T13:50:49.583Z,19.90
2018-03-24T13:53:52.729Z,19.80
2018-03-24T13:56:55.897Z,19.80
2018-03-24T13:59:59.182Z,19.80
2018-03-24T14:03:03.219Z,19.90
2018-03-24T14:06:07.223Z,19.90
2018-03-24T14:09:10.394Z,19.90
2018-03-24T14:12:13.610Z,20.00
2018-03-24T14:15:16.761Z,20.10
2018-03-24T14:18:19.957Z,20.10
2018-03-24T14:21:23.140Z,20.20
2018-03-24T14:24:26.287Z,20.20
2018-03-24T14:27:30.240Z,20.20
2018-03-24T14:30:33.397Z,20.20
2018-03-24T14:33:36.578Z,20.20
2018-03-24T14:36:39.725Z,20.10
2018-03-24T14:39:42.910Z,20.10
2018-03-24T14:42:46.082Z,20.10
2018-03-24T14:45:49.994Z,20.00
2018-03-24T14:48:53.930Z,20.00
2018-03-24T14:51:57.873Z,20.00
2018-03-24T14:55:01.079Z,20.00
2018-03-24T14:58:04.693Z,19.90
2018-03-24T15:01:08.611Z,19.80
2018-03-24T15:04:12.564Z,19.80
2018-03-24T15:07:15.714Z,19.80
2018-03-24T15:10:18.884Z,19.80
2018-03-24T15:13:22.086Z,19.80
2018-03-24T15:16:25.234Z,19.80
2018-03-24T15:19:28.421Z,19.80
2018-03-24T15:22:31.588Z,19.80
2018-03-24T15:25:34.769Z,19.80
2018-03-24T15:28:37.964Z,19.80
2018-03-24T15:31:52.873Z,19.90
2018-03-24T15:35:08.311Z,20.00
2018-03-24T15:38:11.525Z,20.00
2018-03-24T15:41:14.729Z,20.00
2018-03-24T15:44:17.895Z,20.10
2018-03-24T15:47:21.042Z,20.10
2018-03-24T15:50:24.237Z,20.10
2018-03-24T15:53:28.153Z,20.10
2018-03-24T15:56:31.339Z,20.00
2018-03-24T15:59:34.529Z,20.00
2018-03-24T16:05:46.942Z,20.00
2018-03-24T16:08:50.999Z,19.90
2018-03-24T16:11:54.208Z,19.80
2018-03-24T16:14:57.373Z,19.80
2018-03-24T16:18:00.522Z,19.70
2018-03-24T16:21:03.704Z,19.70
2018-03-24T16:24:06.879Z,19.70
2018-03-24T16:27:10.066Z,19.70
2018-03-24T16:30:13.237Z,19.70
2018-03-24T16:33:17.251Z,19.70
2018-03-24T16:36:20.360Z,19.70
2018-03-24T16:39:23.536Z,19.70
2018-03-24T16:42:26.715Z,19.80
2018-03-24T16:45:29.928Z,19.70
2018-03-24T16:48:33.086Z,19.60
2018-03-24T16:51:36.262Z,19.60
2018-03-24T16:54:39.413Z,19.60
2018-03-24T16:57:42.597Z,19.50
2018-03-24T17:00:45.790Z,19.50
2018-03-24T17:03:48.959Z,19.50
2018-03-24T17:06:52.906Z,19.50
2018-03-24T17:09:56.041Z,19.50
2018-03-24T17:12:59.204Z,19.50
2018-03-24T17:16:03.160Z,19.50
2018-03-24T17:19:06.351Z,19.50
2018-03-24T17:22:09.555Z,19.40
2018-03-24T17:25:13.730Z,19.30
2018-03-24T17:28:16.892Z,19.30
2018-03-24T17:31:20.850Z,19.20
2018-03-24T17:34:24.039Z,19.20
2018-03-24T17:37:27.975Z,19.10
2018-03-24T17:40:31.119Z,19.10
2018-03-24T17:43:34.301Z,19.10
2018-03-24T17:46:37.467Z,19.00
2018-03-24T17:49:40.735Z,19.10
2018-03-24T17:52:43.889Z,19.20
2018-03-24T17:55:47.810Z,19.30
2018-03-24T17:58:50.986Z,19.30
2018-03-24T18:01:54.162Z,19.40
2018-03-24T18:04:57.312Z,19.40
2018-03-24T18:08:00.499Z,19.40
2018-03-24T18:11:03.652Z,19.50
2018-03-24T18:14:06.815Z,19.50
2018-03-24T18:17:10.122Z,19.50
2018-03-24T18:20:13.277Z,19.50
2018-03-24T18:23:16.465Z,19.40
2018-03-24T18:26:19.608Z,19.40
2018-03-24T18:29:23.552Z,19.40
2018-03-24T18:32:26.729Z,19.30
2018-03-24T18:35:29.871Z,19.30
2018-03-24T18:38:33.880Z,19.30
2018-03-24T18:41:37.221Z,19.30
2018-03-24T18:44:40.554Z,19.30
2018-03-24T18:47:43.820Z,19.20
2018-03-24T18:50:46.988Z,19.20
2018-03-24T18:53:50.173Z,19.20
2018-03-24T18:56:53.434Z,19.20
2018-03-24T18:59:56.612Z,19.20
2018-03-24T19:02:59.794Z,19.30
2018-03-24T19:06:02.956Z,19.30
2018-03-24T19:09:07.725Z,19.40
2018-03-24T19:12:11.668Z,19.40
2018-03-24T19:15:15.812Z,19.50
2018-03-24T19:18:19.085Z,19.50
2018-03-24T19:21:22.230Z,19.50
2018-03-24T19:24:25.395Z,19.50
2018-03-24T19:27:28.549Z,19.50
2018-03-24T19:30:31.733Z,19.50
2018-03-24T19:33:35.650Z,19.50
2018-03-24T19:36:39.686Z,19.50
2018-03-24T19:39:43.044Z,19.50
2018-03-24T19:42:46.220Z,19.40
2018-03-24T19:45:50.159Z,19.40
2018-03-24T19:48:53.310Z,19.40
2018-03-24T19:51:56.476Z,19.40
2018-03-24T19:54:59.645Z,19.30
2018-03-24T19:58:02.790Z,19.20
2018-03-24T20:01:05.969Z,19.20
2018-03-24T20:04:09.121Z,19.20
2018-03-24T20:07:12.398Z,19.10
2018-03-24T20:10:16.367Z,19.10
2018-03-24T20:13:19.586Z,19.10
2018-03-24T20:16:22.777Z,19.10
2018-03-24T20:19:25.982Z,19.20
2018-03-24T20:22:29.150Z,19.20
2018-03-24T20:25:32.348Z,19.30
2018-03-24T20:28:35.502Z,19.40
2018-03-24T20:31:39.451Z,19.50
2018-03-24T20:34:43.462Z,19.50
2018-03-24T20:37:46.612Z,19.60
2018-03-24T20:40:49.795Z,19.60
2018-03-24T20:43:52.951Z,19.50
2018-03-24T20:46:56.133Z,19.50
2018-03-24T20:49:59.314Z,19.50
2018-03-24T20:53:02.457Z,19.50
2018-03-24T20:56:05.629Z,19.40
2018-03-24T20:59:08.871Z,19.40
2018-03-24T21:02:12.144Z,19.40
2018-03-24T21:05:15.316Z,19.30
2018-03-24T21:08:18.455Z,19.30
2018-03-24T21:11:22.401Z,19.30
2018-03-24T21:14:25.547Z,19.20
2018-03-24T21:17:28.715Z,19.20
2018-03-24T21:20:31.890Z,19.20
2018-03-24T21:23:35.046Z,19.10
2018-03-24T21:26:38.225Z,19.10
2018-03-24T21:29:42.157Z,19.00
2018-03-24T21:32:46.113Z,19.10
2018-03-24T21:35:49.295Z,19.10
2018-03-24T21:38:53.241Z,19.20
2018-03-24T21:41:56.404Z,19.20
2018-03-24T21:44:59.540Z,19.30
2018-03-24T21:48:02.712Z,19.30
2018-03-24T21:51:06.679Z,19.40
2018-03-24T21:54:10.137Z,19.40
2018-03-24T21:57:13.314Z,19.40
2018-03-24T22:00:16.455Z,19.40
2018-03-24T22:03:19.624Z,19.40
2018-03-24T22:06:22.806Z,19.40
2018-03-24T22:09:25.975Z,19.40
2018-03-24T22:12:29.145Z,19.30
2018-03-24T22:15:33.045Z,19.30
2018-03-24T22:18:36.253Z,19.30
2018-03-24T22:21:39.476Z,19.30
2018-03-24T22:24:42.616Z,19.30
2018-03-24T22:27:45.785Z,19.20
2018-03-24T22:30:48.920Z,19.20
2018-03-24T22:33:52.849Z,19.10
2018-03-24T22:36:56.030Z,19.10
2018-03-24T22:39:59.169Z,19.10
2018-03-24T22:43:02.368Z,19.10
2018-03-24T22:46:06.285Z,19.10
2018-03-24T22:49:10.226Z,19.20
2018-03-24T22:52:14.173Z,19.20
2018-03-24T22:55:17.312Z,19.20
2018-03-24T22:58:20.482Z,19.20
2018-03-24T23:01:23.622Z,19.30
2018-03-24T23:04:26.794Z,19.30
2018-03-24T23:07:29.926Z,19.30
2018-03-24T23:10:33.094Z,19.30
2018-03-24T23:13:37.033Z,19.40
2018-03-24T23:16:40.187Z,19.30
2018-03-24T23:19:43.363Z,19.30
2018-03-24T23:22:46.522Z,19.30
2018-03-24T23:25:49.688Z,19.30
2018-03-24T23:28:52.885Z,19.30
2018-03-24T23:31:56.037Z,19.30
2018-03-24T23:34:59.219Z,19.30
2018-03-24T23:38:02.364Z,19.20
2018-03-24T23:41:06.300Z,19.20
2018-03-24T23:44:09.459Z,19.20
2018-03-24T23:47:12.760Z,19.20
2018-03-24T23:50:15.929Z,19.10
2018-03-24T23:53:19.069Z,19.10
2018-03-24T23:56:22.999Z,19.10
2018-03-24T23:59:26.182Z,19.10
